Airfield :
LOGIN :

Register | Disclaimer

   EN    FR    IT 

 










Legend :    VFR   Marginal VFR   IFR   Intensive IFR   Very Intensive IFR
Visi :
Ceiling :
>= 8 km
>= 3000ft
5 to 8 km
1000 to 3000 ft
1500m to 5 km
500 to 1000 ft
800 to 1500m
200 to 500 ft
< 800m
< 200 ft
Symbols :   Thunderstorms  Fog  Heavy snow  Heavy precipitations  Wind > 20 kt
SIGMETs :     Misc.  Thunderstorms  Icing  Turbulence  Mountain Waves  Volcanic Ashes






- Airport Elevation : 1060 ft
- IATA code : GAF


DTTF - Gafsa

CURRENT METAR :
  • 201500Z 25022G34KT 210V270 3000 SA NSC 35/02 Q1005

EXPIRED METARs :
  • 201400Z 24020G35KT 210V280 8000 NSC 36/M02 Q1005
  • 201300Z 22020G33KT 190V250 8000 NSC 37/00 Q1005
  • 201200Z 20015KT 8000 NSC 34/08 Q1006
  • 201100Z 20011KT 150V240 5000 NSC 33/11 Q1006

TAF TAF DTTF
Valid from the 20 at 13:00 until the 20 at 22:00 UTC


201200Z 2013/2022 20015KT 8000 NSC
TEMPO 2013/2018 25020G30KT 2000 SA
PROB30
TEMPO 2016/2018 25025G35KT 0800 SS



MET'MAP, your aeronautical weather chart ! - Copyright ORBIFLY December 2007 - Disclaimer

ORBIFLY MET'MAP TEAM :

Programming & Development : Alexandra Zaïnal
Original concept : Baudouin d'Aumeries
Technical & hardware support : Manuel Goepfert
Assistance : Marc-Olivier Méhu




SOURCES & CREDITS :

   NOAA